sensor_id;sensor_type;location;lat;lon;timestamp;P1;durP1;ratioP1;P2;durP2;ratioP2
18574;SDS011;9417;16.484;102.872;2023-04-25T00:00:04;45.53;;;26.92;;
18574;SDS011;9417;16.484;102.872;2023-04-25T00:02:15;48.55;;;27.40;;
18574;SDS011;9417;16.484;102.872;2023-04-25T00:04:23;48.55;;;25.77;;
18574;SDS011;9417;16.484;102.872;2023-04-25T00:06:34;46.55;;;25.38;;
18574;SDS011;9417;16.484;102.872;2023-04-25T00:08:43;44.45;;;26.30;;
18574;SDS011;9417;16.484;102.872;2023-04-25T00:10:50;44.15;;;25.85;;
18574;SDS011;9417;16.484;102.872;2023-04-25T00:12:58;37.92;;;24.05;;
18574;SDS011;9417;16.484;102.872;2023-04-25T00:15:06;40.35;;;24.55;;
18574;SDS011;9417;16.484;102.872;2023-04-25T00:17:15;39.05;;;24.30;;
18574;SDS011;9417;16.484;102.872;2023-04-25T00:19:22;43.63;;;25.45;;
18574;SDS011;9417;16.484;102.872;2023-04-25T00:21:30;40.17;;;24.23;;
18574;SDS011;9417;16.484;102.872;2023-04-25T00:23:37;39.80;;;24.58;;
18574;SDS011;9417;16.484;102.872;2023-04-25T00:25:47;38.42;;;24.52;;
18574;SDS011;9417;16.484;102.872;2023-04-25T00:27:55;40.90;;;24.98;;
18574;SDS011;9417;16.484;102.872;2023-04-25T00:30:03;35.28;;;21.95;;
18574;SDS011;9417;16.484;102.872;2023-04-25T00:32:11;39.38;;;22.90;;
18574;SDS011;9417;16.484;102.872;2023-04-25T00:34:19;33.75;;;20.55;;
18574;SDS011;9417;16.484;102.872;2023-04-25T00:36:26;35.25;;;21.83;;
18574;SDS011;9417;16.484;102.872;2023-04-25T00:38:34;35.00;;;21.67;;
18574;SDS011;9417;16.484;102.872;2023-04-25T00:40:41;35.33;;;21.98;;
18574;SDS011;9417;16.484;102.872;2023-04-25T00:42:50;32.08;;;20.67;;
18574;SDS011;9417;16.484;102.872;2023-04-25T00:44:59;30.98;;;20.77;;
18574;SDS011;9417;16.484;102.872;2023-04-25T00:47:06;30.02;;;19.92;;
18574;SDS011;9417;16.484;102.872;2023-04-25T00:49:14;32.90;;;20.05;;
18574;SDS011;9417;16.484;102.872;2023-04-25T00:51:21;31.90;;;19.42;;
18574;SDS011;9417;16.484;102.872;2023-04-25T00:53:30;30.75;;;18.98;;
18574;SDS011;9417;16.484;102.872;2023-04-25T00:55:37;30.98;;;18.48;;
18574;SDS011;9417;16.484;102.872;2023-04-25T00:57:45;28.33;;;17.85;;
18574;SDS011;9417;16.484;102.872;2023-04-25T00:59:54;26.48;;;17.10;;
18574;SDS011;9417;16.484;102.872;2023-04-25T01:02:03;26.77;;;17.13;;
18574;SDS011;9417;16.484;102.872;2023-04-25T01:04:13;26.40;;;17.00;;
18574;SDS011;9417;16.484;102.872;2023-04-25T01:06:20;30.42;;;22.70;;
18574;SDS011;9417;16.484;102.872;2023-04-25T01:08:28;27.50;;;18.67;;
18574;SDS011;9417;16.484;102.872;2023-04-25T01:10:36;25.48;;;16.65;;
18574;SDS011;9417;16.484;102.872;2023-04-25T01:12:43;25.02;;;16.67;;
18574;SDS011;9417;16.484;102.872;2023-04-25T01:14:51;26.88;;;17.52;;
18574;SDS011;9417;16.484;102.872;2023-04-25T01:17:01;24.33;;;16.65;;
18574;SDS011;9417;16.484;102.872;2023-04-25T01:19:09;23.55;;;17.15;;
18574;SDS011;9417;16.484;102.872;2023-04-25T01:21:19;26.55;;;16.33;;
18574;SDS011;9417;16.484;102.872;2023-04-25T01:23:26;24.17;;;16.15;;
18574;SDS011;9417;16.484;102.872;2023-04-25T01:25:34;25.20;;;17.27;;
18574;SDS011;9417;16.484;102.872;2023-04-25T01:27:42;24.20;;;17.77;;
18574;SDS011;9417;16.484;102.872;2023-04-25T01:29:50;25.90;;;16.77;;
18574;SDS011;9417;16.484;102.872;2023-04-25T01:31:59;23.73;;;16.30;;
18574;SDS011;9417;16.484;102.872;2023-04-25T01:34:07;27.10;;;17.60;;
18574;SDS011;9417;16.484;102.872;2023-04-25T01:36:15;25.23;;;16.60;;
18574;SDS011;9417;16.484;102.872;2023-04-25T01:38:25;24.25;;;15.73;;
18574;SDS011;9417;16.484;102.872;2023-04-25T01:40:33;20.33;;;14.90;;
18574;SDS011;9417;16.484;102.872;2023-04-25T01:42:42;25.20;;;15.35;;
18574;SDS011;9417;16.484;102.872;2023-04-25T01:44:50;19.75;;;13.15;;
18574;SDS011;9417;16.484;102.872;2023-04-25T01:46:58;19.25;;;14.13;;
18574;SDS011;9417;16.484;102.872;2023-04-25T01:49:06;18.13;;;12.43;;
18574;SDS011;9417;16.484;102.872;2023-04-25T01:51:14;16.73;;;12.38;;
18574;SDS011;9417;16.484;102.872;2023-04-25T01:53:22;17.17;;;11.85;;
18574;SDS011;9417;16.484;102.872;2023-04-25T01:55:31;16.77;;;11.82;;
18574;SDS011;9417;16.484;102.872;2023-04-25T01:57:45;17.20;;;12.48;;
18574;SDS011;9417;16.484;102.872;2023-04-25T01:59:58;18.00;;;12.82;;
18574;SDS011;9417;16.484;102.872;2023-04-25T02:02:15;19.00;;;12.65;;
18574;SDS011;9417;16.484;102.872;2023-04-25T02:04:22;19.70;;;12.90;;
18574;SDS011;9417;16.484;102.872;2023-04-25T02:06:30;19.13;;;12.32;;
18574;SDS011;9417;16.484;102.872;2023-04-25T02:08:38;16.88;;;12.18;;
18574;SDS011;9417;16.484;102.872;2023-04-25T02:10:50;19.27;;;12.23;;
18574;SDS011;9417;16.484;102.872;2023-04-25T02:12:58;16.95;;;10.95;;
18574;SDS011;9417;16.484;102.872;2023-04-25T02:15:16;16.30;;;11.55;;
18574;SDS011;9417;16.484;102.872;2023-04-25T02:17:27;17.13;;;11.57;;
18574;SDS011;9417;16.484;102.872;2023-04-25T02:19:35;16.48;;;11.93;;
18574;SDS011;9417;16.484;102.872;2023-04-25T02:21:42;15.50;;;11.50;;
18574;SDS011;9417;16.484;102.872;2023-04-25T02:23:50;13.85;;;10.60;;
18574;SDS011;9417;16.484;102.872;2023-04-25T02:25:59;13.85;;;10.57;;
18574;SDS011;9417;16.484;102.872;2023-04-25T02:28:07;15.23;;;11.13;;
18574;SDS011;9417;16.484;102.872;2023-04-25T02:30:14;14.98;;;11.52;;
18574;SDS011;9417;16.484;102.872;2023-04-25T02:32:21;15.68;;;11.38;;
18574;SDS011;9417;16.484;102.872;2023-04-25T02:34:29;15.23;;;11.23;;
18574;SDS011;9417;16.484;102.872;2023-04-25T02:36:36;16.58;;;11.38;;
18574;SDS011;9417;16.484;102.872;2023-04-25T02:38:44;13.60;;;10.90;;
18574;SDS011;9417;16.484;102.872;2023-04-25T02:40:52;15.23;;;12.27;;
18574;SDS011;9417;16.484;102.872;2023-04-25T02:43:02;14.32;;;10.82;;
18574;SDS011;9417;16.484;102.872;2023-04-25T02:45:10;15.07;;;11.25;;
18574;SDS011;9417;16.484;102.872;2023-04-25T02:47:18;13.32;;;10.40;;
18574;SDS011;9417;16.484;102.872;2023-04-25T02:49:25;16.05;;;11.27;;
18574;SDS011;9417;16.484;102.872;2023-04-25T02:51:32;15.68;;;11.52;;
18574;SDS011;9417;16.484;102.872;2023-04-25T02:53:40;19.17;;;11.30;;
18574;SDS011;9417;16.484;102.872;2023-04-25T02:55:47;15.60;;;10.65;;
18574;SDS011;9417;16.484;102.872;2023-04-25T02:57:56;18.70;;;12.35;;
18574;SDS011;9417;16.484;102.872;2023-04-25T03:00:26;17.85;;;12.40;;
18574;SDS011;9417;16.484;102.872;2023-04-25T03:02:34;13.75;;;11.43;;
18574;SDS011;9417;16.484;102.872;2023-04-25T03:04:41;16.92;;;11.95;;
18574;SDS011;9417;16.484;102.872;2023-04-25T03:06:50;14.38;;;11.48;;
18574;SDS011;9417;16.484;102.872;2023-04-25T03:08:57;15.20;;;12.18;;
18574;SDS011;9417;16.484;102.872;2023-04-25T03:11:05;13.73;;;11.15;;
18574;SDS011;9417;16.484;102.872;2023-04-25T03:13:13;14.00;;;11.00;;
18574;SDS011;9417;16.484;102.872;2023-04-25T03:15:21;14.75;;;11.43;;
18574;SDS011;9417;16.484;102.872;2023-04-25T03:17:30;14.15;;;11.90;;
18574;SDS011;9417;16.484;102.872;2023-04-25T03:19:37;13.98;;;11.43;;
18574;SDS011;9417;16.484;102.872;2023-04-25T03:21:45;14.63;;;11.43;;
18574;SDS011;9417;16.484;102.872;2023-04-25T03:23:52;16.13;;;12.10;;
18574;SDS011;9417;16.484;102.872;2023-04-25T03:26:00;14.18;;;10.70;;
18574;SDS011;9417;16.484;102.872;2023-04-25T03:28:07;11.77;;;10.35;;
18574;SDS011;9417;16.484;102.872;2023-04-25T03:30:14;14.80;;;11.18;;
18574;SDS011;9417;16.484;102.872;2023-04-25T03:32:23;16.48;;;11.13;;
18574;SDS011;9417;16.484;102.872;2023-04-25T03:34:32;13.05;;;10.80;;
18574;SDS011;9417;16.484;102.872;2023-04-25T03:36:39;12.82;;;10.60;;
18574;SDS011;9417;16.484;102.872;2023-04-25T03:38:48;13.95;;;10.57;;
18574;SDS011;9417;16.484;102.872;2023-04-25T03:40:56;14.30;;;10.77;;
18574;SDS011;9417;16.484;102.872;2023-04-25T03:43:17;12.98;;;10.93;;
18574;SDS011;9417;16.484;102.872;2023-04-25T03:45:30;16.75;;;11.98;;
18574;SDS011;9417;16.484;102.872;2023-04-25T03:47:37;14.15;;;11.75;;
18574;SDS011;9417;16.484;102.872;2023-04-25T03:49:47;13.77;;;11.02;;
18574;SDS011;9417;16.484;102.872;2023-04-25T03:51:57;13.68;;;10.70;;
18574;SDS011;9417;16.484;102.872;2023-04-25T03:54:10;14.10;;;11.27;;
18574;SDS011;9417;16.484;102.872;2023-04-25T03:56:29;13.73;;;11.27;;
18574;SDS011;9417;16.484;102.872;2023-04-25T03:58:47;16.98;;;11.98;;
18574;SDS011;9417;16.484;102.872;2023-04-25T04:00:56;15.68;;;11.05;;
18574;SDS011;9417;16.484;102.872;2023-04-25T04:03:06;15.30;;;11.18;;
18574;SDS011;9417;16.484;102.872;2023-04-25T04:05:16;16.92;;;11.27;;
18574;SDS011;9417;16.484;102.872;2023-04-25T04:07:29;13.77;;;11.10;;
18574;SDS011;9417;16.484;102.872;2023-04-25T04:09:37;13.52;;;11.05;;
18574;SDS011;9417;16.484;102.872;2023-04-25T04:11:50;15.50;;;11.93;;
18574;SDS011;9417;16.484;102.872;2023-04-25T04:13:58;18.27;;;13.48;;
18574;SDS011;9417;16.484;102.872;2023-04-25T04:16:06;18.08;;;13.00;;
18574;SDS011;9417;16.484;102.872;2023-04-25T04:18:14;15.13;;;12.68;;
18574;SDS011;9417;16.484;102.872;2023-04-25T04:20:24;18.20;;;13.23;;
18574;SDS011;9417;16.484;102.872;2023-04-25T04:22:32;16.25;;;12.10;;
18574;SDS011;9417;16.484;102.872;2023-04-25T04:26:55;14.18;;;11.43;;
18574;SDS011;9417;16.484;102.872;2023-04-25T04:29:21;17.88;;;13.38;;
18574;SDS011;9417;16.484;102.872;2023-04-25T04:31:35;14.93;;;12.18;;
18574;SDS011;9417;16.484;102.872;2023-04-25T04:33:42;13.85;;;11.88;;
18574;SDS011;9417;16.484;102.872;2023-04-25T04:35:53;17.85;;;12.52;;
18574;SDS011;9417;16.484;102.872;2023-04-25T04:38:00;15.60;;;13.20;;
18574;SDS011;9417;16.484;102.872;2023-04-25T04:40:09;16.92;;;12.48;;
18574;SDS011;9417;16.484;102.872;2023-04-25T04:42:41;13.80;;;12.32;;
18574;SDS011;9417;16.484;102.872;2023-04-25T04:45:13;15.02;;;11.70;;
18574;SDS011;9417;16.484;102.872;2023-04-25T04:47:42;15.57;;;13.10;;
18574;SDS011;9417;16.484;102.872;2023-04-25T04:50:22;13.45;;;11.88;;
18574;SDS011;9417;16.484;102.872;2023-04-25T04:52:57;18.17;;;12.35;;
18574;SDS011;9417;16.484;102.872;2023-04-25T04:55:31;16.65;;;12.48;;
18574;SDS011;9417;16.484;102.872;2023-04-25T04:57:50;14.70;;;12.00;;
18574;SDS011;9417;16.484;102.872;2023-04-25T05:00:24;14.30;;;12.50;;
18574;SDS011;9417;16.484;102.872;2023-04-25T05:02:47;16.85;;;13.02;;
18574;SDS011;9417;16.484;102.872;2023-04-25T05:05:13;15.23;;;13.63;;
18574;SDS011;9417;16.484;102.872;2023-04-25T05:07:40;16.55;;;12.65;;
18574;SDS011;9417;16.484;102.872;2023-04-25T05:10:10;15.15;;;12.57;;
18574;SDS011;9417;16.484;102.872;2023-04-25T05:12:38;15.23;;;13.13;;
18574;SDS011;9417;16.484;102.872;2023-04-25T05:15:06;15.73;;;12.70;;
18574;SDS011;9417;16.484;102.872;2023-04-25T05:17:32;19.00;;;12.70;;
18574;SDS011;9417;16.484;102.872;2023-04-25T05:19:51;16.02;;;12.77;;
18574;SDS011;9417;16.484;102.872;2023-04-25T05:22:09;15.88;;;13.18;;
18574;SDS011;9417;16.484;102.872;2023-04-25T05:24:39;15.43;;;13.32;;
18574;SDS011;9417;16.484;102.872;2023-04-25T05:27:04;17.50;;;14.23;;
18574;SDS011;9417;16.484;102.872;2023-04-25T05:29:22;16.63;;;14.15;;
18574;SDS011;9417;16.484;102.872;2023-04-25T05:31:50;16.73;;;13.32;;
18574;SDS011;9417;16.484;102.872;2023-04-25T05:33:59;17.35;;;14.05;;
18574;SDS011;9417;16.484;102.872;2023-04-25T05:36:18;16.95;;;13.20;;
18574;SDS011;9417;16.484;102.872;2023-04-25T05:38:26;15.82;;;14.18;;
18574;SDS011;9417;16.484;102.872;2023-04-25T05:40:38;19.52;;;13.93;;
18574;SDS011;9417;16.484;102.872;2023-04-25T05:42:53;16.27;;;13.35;;
18574;SDS011;9417;16.484;102.872;2023-04-25T05:45:17;14.90;;;13.23;;
18574;SDS011;9417;16.484;102.872;2023-04-25T05:47:39;16.55;;;13.35;;
18574;SDS011;9417;16.484;102.872;2023-04-25T05:49:52;15.73;;;13.68;;
18574;SDS011;9417;16.484;102.872;2023-04-25T05:52:17;16.52;;;12.95;;
18574;SDS011;9417;16.484;102.872;2023-04-25T05:54:52;16.15;;;13.25;;
18574;SDS011;9417;16.484;102.872;2023-04-25T05:57:00;16.75;;;12.93;;
18574;SDS011;9417;16.484;102.872;2023-04-25T05:59:10;17.42;;;14.07;;
18574;SDS011;9417;16.484;102.872;2023-04-25T06:01:17;16.02;;;14.18;;
18574;SDS011;9417;16.484;102.872;2023-04-25T06:03:25;16.38;;;14.20;;
18574;SDS011;9417;16.484;102.872;2023-04-25T06:05:34;20.98;;;14.15;;
18574;SDS011;9417;16.484;102.872;2023-04-25T06:07:41;15.85;;;13.85;;
18574;SDS011;9417;16.484;102.872;2023-04-25T06:09:49;17.40;;;13.50;;
18574;SDS011;9417;16.484;102.872;2023-04-25T06:11:57;17.60;;;14.25;;
18574;SDS011;9417;16.484;102.872;2023-04-25T06:14:05;16.55;;;13.25;;
18574;SDS011;9417;16.484;102.872;2023-04-25T06:16:20;18.42;;;14.82;;
18574;SDS011;9417;16.484;102.872;2023-04-25T06:18:29;17.27;;;14.20;;
18574;SDS011;9417;16.484;102.872;2023-04-25T06:20:37;15.95;;;14.05;;
18574;SDS011;9417;16.484;102.872;2023-04-25T06:22:45;17.83;;;14.27;;
18574;SDS011;9417;16.484;102.872;2023-04-25T06:24:53;18.00;;;13.93;;
18574;SDS011;9417;16.484;102.872;2023-04-25T06:27:03;16.20;;;13.45;;
18574;SDS011;9417;16.484;102.872;2023-04-25T06:29:10;16.70;;;14.13;;
18574;SDS011;9417;16.484;102.872;2023-04-25T06:31:20;14.90;;;13.30;;
18574;SDS011;9417;16.484;102.872;2023-04-25T06:33:30;15.98;;;14.27;;
18574;SDS011;9417;16.484;102.872;2023-04-25T06:35:38;14.48;;;12.95;;
18574;SDS011;9417;16.484;102.872;2023-04-25T06:37:48;17.52;;;14.27;;
18574;SDS011;9417;16.484;102.872;2023-04-25T06:39:57;16.08;;;13.82;;
18574;SDS011;9417;16.484;102.872;2023-04-25T06:42:06;16.00;;;14.05;;
18574;SDS011;9417;16.484;102.872;2023-04-25T06:44:24;16.65;;;14.80;;
18574;SDS011;9417;16.484;102.872;2023-04-25T06:46:35;17.52;;;14.55;;
18574;SDS011;9417;16.484;102.872;2023-04-25T06:48:42;15.52;;;13.82;;
18574;SDS011;9417;16.484;102.872;2023-04-25T06:50:51;16.13;;;13.60;;
18574;SDS011;9417;16.484;102.872;2023-04-25T06:53:01;15.85;;;14.25;;
18574;SDS011;9417;16.484;102.872;2023-04-25T06:55:09;16.45;;;14.77;;
18574;SDS011;9417;16.484;102.872;2023-04-25T06:57:42;18.50;;;13.45;;
18574;SDS011;9417;16.484;102.872;2023-04-25T07:00:08;15.65;;;13.75;;
18574;SDS011;9417;16.484;102.872;2023-04-25T07:02:18;17.27;;;14.75;;
18574;SDS011;9417;16.484;102.872;2023-04-25T07:06:34;16.30;;;14.43;;
18574;SDS011;9417;16.484;102.872;2023-04-25T07:08:46;15.45;;;13.80;;
18574;SDS011;9417;16.484;102.872;2023-04-25T07:10:54;16.38;;;14.77;;
18574;SDS011;9417;16.484;102.872;2023-04-25T07:13:02;16.77;;;14.63;;
18574;SDS011;9417;16.484;102.872;2023-04-25T07:15:09;16.85;;;14.95;;
18574;SDS011;9417;16.484;102.872;2023-04-25T07:17:22;18.75;;;15.73;;
18574;SDS011;9417;16.484;102.872;2023-04-25T07:19:29;17.25;;;14.48;;
18574;SDS011;9417;16.484;102.872;2023-04-25T07:21:37;15.45;;;13.85;;
18574;SDS011;9417;16.484;102.872;2023-04-25T07:23:46;16.23;;;13.75;;
18574;SDS011;9417;16.484;102.872;2023-04-25T07:25:59;14.88;;;13.30;;
18574;SDS011;9417;16.484;102.872;2023-04-25T07:28:06;16.25;;;14.55;;
18574;SDS011;9417;16.484;102.872;2023-04-25T07:30:14;19.60;;;15.90;;
18574;SDS011;9417;16.484;102.872;2023-04-25T07:32:23;18.08;;;15.70;;
18574;SDS011;9417;16.484;102.872;2023-04-25T07:34:31;20.17;;;15.32;;
18574;SDS011;9417;16.484;102.872;2023-04-25T07:36:41;20.05;;;15.80;;
18574;SDS011;9417;16.484;102.872;2023-04-25T07:38:49;18.10;;;15.43;;
18574;SDS011;9417;16.484;102.872;2023-04-25T07:40:58;17.50;;;15.35;;
18574;SDS011;9417;16.484;102.872;2023-04-25T07:43:05;17.10;;;14.90;;
18574;SDS011;9417;16.484;102.872;2023-04-25T07:45:21;17.83;;;16.13;;
18574;SDS011;9417;16.484;102.872;2023-04-25T07:47:31;17.83;;;15.93;;
18574;SDS011;9417;16.484;102.872;2023-04-25T07:49:38;17.17;;;15.38;;
18574;SDS011;9417;16.484;102.872;2023-04-25T07:51:45;20.15;;;15.55;;
18574;SDS011;9417;16.484;102.872;2023-04-25T07:53:54;18.88;;;15.32;;
18574;SDS011;9417;16.484;102.872;2023-04-25T07:56:03;18.13;;;15.35;;
18574;SDS011;9417;16.484;102.872;2023-04-25T07:58:14;18.25;;;15.15;;
18574;SDS011;9417;16.484;102.872;2023-04-25T08:00:34;18.67;;;15.73;;
18574;SDS011;9417;16.484;102.872;2023-04-25T08:03:14;17.73;;;15.88;;
18574;SDS011;9417;16.484;102.872;2023-04-25T08:05:22;18.30;;;16.00;;
18574;SDS011;9417;16.484;102.872;2023-04-25T08:07:36;18.48;;;15.70;;
18574;SDS011;9417;16.484;102.872;2023-04-25T08:09:43;17.85;;;16.00;;
18574;SDS011;9417;16.484;102.872;2023-04-25T08:11:58;20.42;;;16.50;;
18574;SDS011;9417;16.484;102.872;2023-04-25T08:14:07;18.85;;;16.27;;
18574;SDS011;9417;16.484;102.872;2023-04-25T08:16:17;18.67;;;16.45;;
18574;SDS011;9417;16.484;102.872;2023-04-25T08:18:28;21.48;;;16.77;;
18574;SDS011;9417;16.484;102.872;2023-04-25T08:20:35;17.73;;;15.88;;
18574;SDS011;9417;16.484;102.872;2023-04-25T08:22:45;19.17;;;17.10;;
18574;SDS011;9417;16.484;102.872;2023-04-25T08:25:04;19.00;;;16.80;;
18574;SDS011;9417;16.484;102.872;2023-04-25T08:27:12;17.70;;;15.80;;
18574;SDS011;9417;16.484;102.872;2023-04-25T08:29:20;19.80;;;17.00;;
18574;SDS011;9417;16.484;102.872;2023-04-25T08:31:29;17.92;;;15.82;;
18574;SDS011;9417;16.484;102.872;2023-04-25T08:33:40;19.02;;;17.02;;
18574;SDS011;9417;16.484;102.872;2023-04-25T08:36:20;18.95;;;16.75;;
18574;SDS011;9417;16.484;102.872;2023-04-25T08:39:11;18.88;;;16.98;;
18574;SDS011;9417;16.484;102.872;2023-04-25T08:41:34;18.50;;;15.75;;
18574;SDS011;9417;16.484;102.872;2023-04-25T08:43:45;19.55;;;16.70;;
18574;SDS011;9417;16.484;102.872;2023-04-25T08:45:54;18.02;;;16.17;;
18574;SDS011;9417;16.484;102.872;2023-04-25T08:48:14;18.88;;;16.90;;
18574;SDS011;9417;16.484;102.872;2023-04-25T08:50:24;17.60;;;15.70;;
18574;SDS011;9417;16.484;102.872;2023-04-25T08:52:35;18.48;;;16.50;;
18574;SDS011;9417;16.484;102.872;2023-04-25T08:54:43;19.08;;;16.35;;
18574;SDS011;9417;16.484;102.872;2023-04-25T08:56:55;18.00;;;15.85;;
18574;SDS011;9417;16.484;102.872;2023-04-25T08:59:05;18.25;;;15.20;;
18574;SDS011;9417;16.484;102.872;2023-04-25T09:01:13;17.83;;;15.93;;
18574;SDS011;9417;16.484;102.872;2023-04-25T09:03:26;17.15;;;15.35;;
18574;SDS011;9417;16.484;102.872;2023-04-25T09:05:35;19.95;;;15.63;;
18574;SDS011;9417;16.484;102.872;2023-04-25T09:07:46;19.63;;;17.08;;
18574;SDS011;9417;16.484;102.872;2023-04-25T09:09:53;22.17;;;15.93;;
18574;SDS011;9417;16.484;102.872;2023-04-25T09:12:01;22.90;;;15.82;;
18574;SDS011;9417;16.484;102.872;2023-04-25T09:14:12;17.70;;;15.30;;
18574;SDS011;9417;16.484;102.872;2023-04-25T09:19:17;20.77;;;16.33;;
18574;SDS011;9417;16.484;102.872;2023-04-25T09:21:51;23.65;;;16.50;;
18574;SDS011;9417;16.484;102.872;2023-04-25T09:26:08;18.13;;;15.15;;
18574;SDS011;9417;16.484;102.872;2023-04-25T09:28:15;18.98;;;15.40;;
18574;SDS011;9417;16.484;102.872;2023-04-25T09:30:32;18.15;;;15.73;;
18574;SDS011;9417;16.484;102.872;2023-04-25T09:32:55;18.33;;;15.80;;
18574;SDS011;9417;16.484;102.872;2023-04-25T09:35:04;19.58;;;16.38;;
18574;SDS011;9417;16.484;102.872;2023-04-25T09:37:16;19.10;;;16.73;;
18574;SDS011;9417;16.484;102.872;2023-04-25T09:39:43;18.33;;;15.17;;
18574;SDS011;9417;16.484;102.872;2023-04-25T09:41:53;19.15;;;16.02;;
18574;SDS011;9417;16.484;102.872;2023-04-25T09:44:01;19.55;;;16.05;;
18574;SDS011;9417;16.484;102.872;2023-04-25T09:46:12;18.57;;;16.53;;
18574;SDS011;9417;16.484;102.872;2023-04-25T09:48:25;19.13;;;15.63;;
18574;SDS011;9417;16.484;102.872;2023-04-25T09:50:38;18.50;;;15.85;;
18574;SDS011;9417;16.484;102.872;2023-04-25T09:52:48;18.45;;;15.88;;
18574;SDS011;9417;16.484;102.872;2023-04-25T09:55:28;16.42;;;14.65;;
18574;SDS011;9417;16.484;102.872;2023-04-25T09:57:36;16.63;;;14.80;;
18574;SDS011;9417;16.484;102.872;2023-04-25T09:59:44;19.98;;;15.82;;
18574;SDS011;9417;16.484;102.872;2023-04-25T10:01:52;17.17;;;14.65;;
18574;SDS011;9417;16.484;102.872;2023-04-25T10:04:10;17.70;;;15.45;;
18574;SDS011;9417;16.484;102.872;2023-04-25T10:06:36;19.85;;;15.57;;
18574;SDS011;9417;16.484;102.872;2023-04-25T10:08:49;20.77;;;16.52;;
18574;SDS011;9417;16.484;102.872;2023-04-25T10:11:00;23.05;;;16.33;;
18574;SDS011;9417;16.484;102.872;2023-04-25T10:13:08;19.30;;;15.18;;
18574;SDS011;9417;16.484;102.872;2023-04-25T10:15:18;18.05;;;15.68;;
18574;SDS011;9417;16.484;102.872;2023-04-25T10:17:27;19.55;;;14.73;;
18574;SDS011;9417;16.484;102.872;2023-04-25T10:19:35;20.30;;;15.90;;
18574;SDS011;9417;16.484;102.872;2023-04-25T10:21:46;17.67;;;15.68;;
18574;SDS011;9417;16.484;102.872;2023-04-25T10:23:59;21.70;;;19.45;;
18574;SDS011;9417;16.484;102.872;2023-04-25T10:26:06;19.90;;;15.18;;
18574;SDS011;9417;16.484;102.872;2023-04-25T10:28:16;18.95;;;15.93;;
18574;SDS011;9417;16.484;102.872;2023-04-25T10:30:24;19.83;;;15.50;;
18574;SDS011;9417;16.484;102.872;2023-04-25T10:32:32;21.98;;;16.50;;
18574;SDS011;9417;16.484;102.872;2023-04-25T10:34:39;19.58;;;16.02;;
18574;SDS011;9417;16.484;102.872;2023-04-25T10:36:50;20.73;;;15.93;;
18574;SDS011;9417;16.484;102.872;2023-04-25T10:39:02;23.35;;;16.42;;
18574;SDS011;9417;16.484;102.872;2023-04-25T10:41:12;20.17;;;16.58;;
18574;SDS011;9417;16.484;102.872;2023-04-25T10:43:39;22.23;;;15.52;;
18574;SDS011;9417;16.484;102.872;2023-04-25T10:45:53;17.77;;;15.80;;
18574;SDS011;9417;16.484;102.872;2023-04-25T10:48:00;22.25;;;16.23;;
18574;SDS011;9417;16.484;102.872;2023-04-25T10:50:09;21.60;;;16.33;;
18574;SDS011;9417;16.484;102.872;2023-04-25T10:52:24;23.92;;;16.63;;
18574;SDS011;9417;16.484;102.872;2023-04-25T10:54:35;19.63;;;15.85;;
18574;SDS011;9417;16.484;102.872;2023-04-25T10:56:48;21.00;;;17.45;;
18574;SDS011;9417;16.484;102.872;2023-04-25T10:59:03;21.13;;;16.80;;
18574;SDS011;9417;16.484;102.872;2023-04-25T11:01:13;21.90;;;16.63;;
18574;SDS011;9417;16.484;102.872;2023-04-25T11:03:25;23.33;;;16.98;;
18574;SDS011;9417;16.484;102.872;2023-04-25T11:05:34;26.80;;;18.98;;
18574;SDS011;9417;16.484;102.872;2023-04-25T11:07:59;25.08;;;16.17;;
18574;SDS011;9417;16.484;102.872;2023-04-25T11:10:11;24.98;;;17.48;;
18574;SDS011;9417;16.484;102.872;2023-04-25T11:12:19;23.58;;;17.30;;
18574;SDS011;9417;16.484;102.872;2023-04-25T11:14:27;25.52;;;17.42;;
18574;SDS011;9417;16.484;102.872;2023-04-25T11:16:35;25.13;;;17.88;;
18574;SDS011;9417;16.484;102.872;2023-04-25T11:18:42;22.13;;;17.48;;
18574;SDS011;9417;16.484;102.872;2023-04-25T11:20:50;23.48;;;17.70;;
18574;SDS011;9417;16.484;102.872;2023-04-25T11:22:58;26.77;;;18.50;;
18574;SDS011;9417;16.484;102.872;2023-04-25T11:25:06;23.75;;;17.77;;
18574;SDS011;9417;16.484;102.872;2023-04-25T11:27:17;22.25;;;18.88;;
18574;SDS011;9417;16.484;102.872;2023-04-25T11:29:26;24.65;;;18.88;;
18574;SDS011;9417;16.484;102.872;2023-04-25T11:31:33;30.90;;;18.40;;
18574;SDS011;9417;16.484;102.872;2023-04-25T11:33:41;27.85;;;19.17;;
18574;SDS011;9417;16.484;102.872;2023-04-25T11:35:49;25.95;;;18.50;;
18574;SDS011;9417;16.484;102.872;2023-04-25T11:37:57;26.00;;;19.20;;
18574;SDS011;9417;16.484;102.872;2023-04-25T11:40:05;24.02;;;18.33;;
18574;SDS011;9417;16.484;102.872;2023-04-25T11:42:16;32.10;;;19.52;;
18574;SDS011;9417;16.484;102.872;2023-04-25T11:44:23;26.90;;;18.58;;
18574;SDS011;9417;16.484;102.872;2023-04-25T11:46:31;27.90;;;19.52;;
18574;SDS011;9417;16.484;102.872;2023-04-25T11:48:40;33.90;;;20.90;;
18574;SDS011;9417;16.484;102.872;2023-04-25T11:50:49;28.17;;;21.05;;
18574;SDS011;9417;16.484;102.872;2023-04-25T11:52:56;29.67;;;20.33;;
18574;SDS011;9417;16.484;102.872;2023-04-25T11:55:04;26.90;;;20.23;;
18574;SDS011;9417;16.484;102.872;2023-04-25T11:57:13;30.65;;;20.02;;
18574;SDS011;9417;16.484;102.872;2023-04-25T11:59:24;27.25;;;20.08;;
18574;SDS011;9417;16.484;102.872;2023-04-25T12:01:32;27.27;;;20.23;;
18574;SDS011;9417;16.484;102.872;2023-04-25T12:03:45;28.35;;;19.70;;
18574;SDS011;9417;16.484;102.872;2023-04-25T12:05:53;25.13;;;19.70;;
18574;SDS011;9417;16.484;102.872;2023-04-25T12:08:12;27.45;;;20.80;;
18574;SDS011;9417;16.484;102.872;2023-04-25T12:12:27;27.55;;;19.70;;
18574;SDS011;9417;16.484;102.872;2023-04-25T12:14:39;27.92;;;19.27;;
18574;SDS011;9417;16.484;102.872;2023-04-25T12:16:52;26.20;;;20.05;;
18574;SDS011;9417;16.484;102.872;2023-04-25T12:19:01;30.35;;;20.08;;
18574;SDS011;9417;16.484;102.872;2023-04-25T12:21:09;29.48;;;20.85;;
18574;SDS011;9417;16.484;102.872;2023-04-25T12:23:17;33.10;;;21.63;;
18574;SDS011;9417;16.484;102.872;2023-04-25T12:25:34;31.02;;;23.23;;
18574;SDS011;9417;16.484;102.872;2023-04-25T12:27:42;30.40;;;20.23;;
18574;SDS011;9417;16.484;102.872;2023-04-25T12:29:55;29.48;;;21.25;;
18574;SDS011;9417;16.484;102.872;2023-04-25T12:32:03;28.55;;;19.70;;
18574;SDS011;9417;16.484;102.872;2023-04-25T12:34:10;27.90;;;21.45;;
18574;SDS011;9417;16.484;102.872;2023-04-25T12:36:20;28.08;;;21.98;;
18574;SDS011;9417;16.484;102.872;2023-04-25T12:38:28;29.95;;;22.83;;
18574;SDS011;9417;16.484;102.872;2023-04-25T12:40:38;29.13;;;21.83;;
18574;SDS011;9417;16.484;102.872;2023-04-25T12:42:45;34.60;;;22.50;;
18574;SDS011;9417;16.484;102.872;2023-04-25T12:44:54;33.85;;;24.23;;
18574;SDS011;9417;16.484;102.872;2023-04-25T12:47:01;33.45;;;23.67;;
18574;SDS011;9417;16.484;102.872;2023-04-25T12:49:09;37.30;;;22.50;;